sensor_id;sensor_type;location;lat;lon;timestamp;temperature;humidity
26743;DHT22;14341;51.256;22.478;2023-04-25T00:02:09;11.00;99.90
26743;DHT22;14341;51.256;22.478;2023-04-25T00:05:13;10.80;99.90
26743;DHT22;14341;51.256;22.478;2023-04-25T00:08:18;10.70;99.90
26743;DHT22;14341;51.256;22.478;2023-04-25T00:11:21;10.60;99.90
26743;DHT22;14341;51.256;22.478;2023-04-25T00:14:24;10.50;99.90
26743;DHT22;14341;51.256;22.478;2023-04-25T00:17:30;10.40;99.90
26743;DHT22;14341;51.256;22.478;2023-04-25T00:20:35;10.30;99.90
26743;DHT22;14341;51.256;22.478;2023-04-25T00:23:38;10.30;99.90
26743;DHT22;14341;51.256;22.478;2023-04-25T00:26:41;10.20;99.90
26743;DHT22;14341;51.256;22.478;2023-04-25T00:29:45;10.10;99.90
26743;DHT22;14341;51.256;22.478;2023-04-25T00:32:49;10.00;99.90
26743;DHT22;14341;51.256;22.478;2023-04-25T00:35:53;9.80;99.90
26743;DHT22;14341;51.256;22.478;2023-04-25T00:38:56;9.70;99.90
26743;DHT22;14341;51.256;22.478;2023-04-25T00:42:00;9.70;99.90
26743;DHT22;14341;51.256;22.478;2023-04-25T00:45:06;9.80;99.90
26743;DHT22;14341;51.256;22.478;2023-04-25T00:48:11;9.90;99.90
26743;DHT22;14341;51.256;22.478;2023-04-25T00:51:19;10.00;99.90
26743;DHT22;14341;51.256;22.478;2023-04-25T00:54:23;10.10;99.90
26743;DHT22;14341;51.256;22.478;2023-04-25T00:57:26;10.30;99.90
26743;DHT22;14341;51.256;22.478;2023-04-25T01:00:30;10.20;99.90
26743;DHT22;14341;51.256;22.478;2023-04-25T01:03:38;10.20;99.90
26743;DHT22;14341;51.256;22.478;2023-04-25T01:06:48;10.20;99.90
26743;DHT22;14341;51.256;22.478;2023-04-25T01:09:52;10.20;99.90
26743;DHT22;14341;51.256;22.478;2023-04-25T01:12:55;10.20;99.90
26743;DHT22;14341;51.256;22.478;2023-04-25T01:16:00;10.20;99.90
26743;DHT22;14341;51.256;22.478;2023-04-25T01:19:09;10.30;99.90
26743;DHT22;14341;51.256;22.478;2023-04-25T01:22:15;10.40;99.90
26743;DHT22;14341;51.256;22.478;2023-04-25T01:25:19;10.20;99.90
26743;DHT22;14341;51.256;22.478;2023-04-25T01:28:23;10.20;99.90
26743;DHT22;14341;51.256;22.478;2023-04-25T01:31:27;10.20;99.90
26743;DHT22;14341;51.256;22.478;2023-04-25T01:34:30;10.30;99.90
26743;DHT22;14341;51.256;22.478;2023-04-25T01:37:35;10.00;99.90
26743;DHT22;14341;51.256;22.478;2023-04-25T01:40:39;9.80;99.90
26743;DHT22;14341;51.256;22.478;2023-04-25T01:43:43;9.80;99.90
26743;DHT22;14341;51.256;22.478;2023-04-25T01:46:46;9.60;99.90
26743;DHT22;14341;51.256;22.478;2023-04-25T01:49:50;9.50;99.90
26743;DHT22;14341;51.256;22.478;2023-04-25T01:52:55;9.40;99.90
26743;DHT22;14341;51.256;22.478;2023-04-25T01:55:59;9.40;99.90
26743;DHT22;14341;51.256;22.478;2023-04-25T01:59:07;9.50;99.90
26743;DHT22;14341;51.256;22.478;2023-04-25T02:02:34;9.40;99.90
26743;DHT22;14341;51.256;22.478;2023-04-25T02:05:39;9.40;99.90
26743;DHT22;14341;51.256;22.478;2023-04-25T02:08:47;9.40;99.90
26743;DHT22;14341;51.256;22.478;2023-04-25T02:11:51;9.50;99.90
26743;DHT22;14341;51.256;22.478;2023-04-25T02:15:30;9.60;99.90
26743;DHT22;14341;51.256;22.478;2023-04-25T02:18:44;9.90;99.90
26743;DHT22;14341;51.256;22.478;2023-04-25T02:21:48;9.90;99.90
26743;DHT22;14341;51.256;22.478;2023-04-25T02:24:53;10.00;99.90
26743;DHT22;14341;51.256;22.478;2023-04-25T02:27:56;9.90;99.90
26743;DHT22;14341;51.256;22.478;2023-04-25T02:31:00;9.90;99.90
26743;DHT22;14341;51.256;22.478;2023-04-25T02:34:05;9.90;99.90
26743;DHT22;14341;51.256;22.478;2023-04-25T02:37:12;9.80;99.90
26743;DHT22;14341;51.256;22.478;2023-04-25T02:40:17;9.70;99.90
26743;DHT22;14341;51.256;22.478;2023-04-25T02:43:21;9.60;99.90
26743;DHT22;14341;51.256;22.478;2023-04-25T02:46:26;9.60;99.90
26743;DHT22;14341;51.256;22.478;2023-04-25T02:49:40;9.60;99.90
26743;DHT22;14341;51.256;22.478;2023-04-25T02:52:44;9.60;99.90
26743;DHT22;14341;51.256;22.478;2023-04-25T02:56:01;9.60;99.90
26743;DHT22;14341;51.256;22.478;2023-04-25T02:59:16;9.60;99.90
26743;DHT22;14341;51.256;22.478;2023-04-25T03:02:22;9.70;99.90
26743;DHT22;14341;51.256;22.478;2023-04-25T03:05:26;9.70;99.90
26743;DHT22;14341;51.256;22.478;2023-04-25T03:08:29;9.70;99.90
26743;DHT22;14341;51.256;22.478;2023-04-25T03:11:38;9.70;99.90
26743;DHT22;14341;51.256;22.478;2023-04-25T03:14:41;9.70;99.90
26743;DHT22;14341;51.256;22.478;2023-04-25T03:17:45;9.70;99.90
26743;DHT22;14341;51.256;22.478;2023-04-25T03:20:48;9.70;99.90
26743;DHT22;14341;51.256;22.478;2023-04-25T03:23:52;9.80;99.90
26743;DHT22;14341;51.256;22.478;2023-04-25T03:26:57;9.80;99.90
26743;DHT22;14341;51.256;22.478;2023-04-25T03:30:00;9.90;99.90
26743;DHT22;14341;51.256;22.478;2023-04-25T03:33:04;10.00;99.90
26743;DHT22;14341;51.256;22.478;2023-04-25T03:36:08;10.20;99.90
26743;DHT22;14341;51.256;22.478;2023-04-25T03:39:12;10.30;99.90
26743;DHT22;14341;51.256;22.478;2023-04-25T03:42:22;10.40;99.90
26743;DHT22;14341;51.256;22.478;2023-04-25T03:45:25;10.50;99.90
26743;DHT22;14341;51.256;22.478;2023-04-25T03:48:29;10.60;99.90
26743;DHT22;14341;51.256;22.478;2023-04-25T03:51:33;10.70;99.90
26743;DHT22;14341;51.256;22.478;2023-04-25T03:54:36;10.80;99.90
26743;DHT22;14341;51.256;22.478;2023-04-25T03:57:47;10.80;99.90
26743;DHT22;14341;51.256;22.478;2023-04-25T04:00:51;10.80;99.90
26743;DHT22;14341;51.256;22.478;2023-04-25T04:03:54;10.90;99.90
26743;DHT22;14341;51.256;22.478;2023-04-25T04:07:00;10.90;99.90
26743;DHT22;14341;51.256;22.478;2023-04-25T04:10:08;10.80;99.90
26743;DHT22;14341;51.256;22.478;2023-04-25T04:13:15;10.80;99.90
26743;DHT22;14341;51.256;22.478;2023-04-25T04:16:19;10.80;99.90
26743;DHT22;14341;51.256;22.478;2023-04-25T04:19:23;10.80;99.90
26743;DHT22;14341;51.256;22.478;2023-04-25T04:22:48;10.80;99.90
26743;DHT22;14341;51.256;22.478;2023-04-25T04:25:53;10.80;99.90
26743;DHT22;14341;51.256;22.478;2023-04-25T04:29:04;10.80;99.90
26743;DHT22;14341;51.256;22.478;2023-04-25T04:32:17;10.80;99.90
26743;DHT22;14341;51.256;22.478;2023-04-25T04:35:20;10.70;99.90
26743;DHT22;14341;51.256;22.478;2023-04-25T04:38:23;10.80;99.90
26743;DHT22;14341;51.256;22.478;2023-04-25T04:41:30;10.80;99.90
26743;DHT22;14341;51.256;22.478;2023-04-25T04:45:08;10.90;99.90
26743;DHT22;14341;51.256;22.478;2023-04-25T04:48:41;11.00;99.90
26743;DHT22;14341;51.256;22.478;2023-04-25T04:51:44;11.00;99.90
26743;DHT22;14341;51.256;22.478;2023-04-25T04:55:13;11.00;99.90
26743;DHT22;14341;51.256;22.478;2023-04-25T04:58:36;11.10;99.90
26743;DHT22;14341;51.256;22.478;2023-04-25T05:01:59;11.10;99.90
26743;DHT22;14341;51.256;22.478;2023-04-25T05:05:23;11.30;99.90
26743;DHT22;14341;51.256;22.478;2023-04-25T05:08:59;11.40;99.90
26743;DHT22;14341;51.256;22.478;2023-04-25T05:12:18;11.70;99.90
26743;DHT22;14341;51.256;22.478;2023-04-25T05:15:24;11.80;99.90
26743;DHT22;14341;51.256;22.478;2023-04-25T05:18:49;11.90;99.90
26743;DHT22;14341;51.256;22.478;2023-04-25T05:22:15;11.90;99.90
26743;DHT22;14341;51.256;22.478;2023-04-25T05:25:48;12.00;99.90
26743;DHT22;14341;51.256;22.478;2023-04-25T05:29:17;12.00;99.90
26743;DHT22;14341;51.256;22.478;2023-04-25T05:32:39;12.00;99.90
26743;DHT22;14341;51.256;22.478;2023-04-25T05:35:46;12.00;99.90
26743;DHT22;14341;51.256;22.478;2023-04-25T05:38:59;12.10;99.90
26743;DHT22;14341;51.256;22.478;2023-04-25T05:42:21;12.10;99.90
26743;DHT22;14341;51.256;22.478;2023-04-25T05:45:57;12.00;99.90
26743;DHT22;14341;51.256;22.478;2023-04-25T05:49:23;11.80;99.90
26743;DHT22;14341;51.256;22.478;2023-04-25T05:52:55;11.70;99.90
26743;DHT22;14341;51.256;22.478;2023-04-25T05:56:04;11.70;99.90
26743;DHT22;14341;51.256;22.478;2023-04-25T05:59:07;11.70;99.90
26743;DHT22;14341;51.256;22.478;2023-04-25T06:02:11;11.70;99.90
26743;DHT22;14341;51.256;22.478;2023-04-25T06:05:15;11.70;99.90
26743;DHT22;14341;51.256;22.478;2023-04-25T06:08:22;11.60;99.90
26743;DHT22;14341;51.256;22.478;2023-04-25T06:11:26;11.60;99.90
26743;DHT22;14341;51.256;22.478;2023-04-25T06:14:29;11.70;99.90
26743;DHT22;14341;51.256;22.478;2023-04-25T06:17:33;11.60;99.90
26743;DHT22;14341;51.256;22.478;2023-04-25T06:20:37;11.60;99.90
26743;DHT22;14341;51.256;22.478;2023-04-25T06:23:42;11.60;99.90
26743;DHT22;14341;51.256;22.478;2023-04-25T06:26:52;11.60;99.90
26743;DHT22;14341;51.256;22.478;2023-04-25T06:29:56;11.60;99.90
26743;DHT22;14341;51.256;22.478;2023-04-25T06:32:59;11.60;99.90
26743;DHT22;14341;51.256;22.478;2023-04-25T06:36:04;11.60;99.90
26743;DHT22;14341;51.256;22.478;2023-04-25T06:39:09;11.50;99.90
26743;DHT22;14341;51.256;22.478;2023-04-25T06:42:13;11.60;99.90
26743;DHT22;14341;51.256;22.478;2023-04-25T06:45:26;11.80;99.90
26743;DHT22;14341;51.256;22.478;2023-04-25T06:48:29;11.70;99.90
26743;DHT22;14341;51.256;22.478;2023-04-25T06:51:33;11.80;99.90
26743;DHT22;14341;51.256;22.478;2023-04-25T06:54:38;11.90;99.90
26743;DHT22;14341;51.256;22.478;2023-04-25T06:57:53;12.10;99.90
26743;DHT22;14341;51.256;22.478;2023-04-25T07:01:25;12.50;99.90
26743;DHT22;14341;51.256;22.478;2023-04-25T07:04:29;12.70;99.90
26743;DHT22;14341;51.256;22.478;2023-04-25T07:07:34;12.70;99.90
26743;DHT22;14341;51.256;22.478;2023-04-25T07:10:39;12.70;99.90
26743;DHT22;14341;51.256;22.478;2023-04-25T07:13:43;12.50;99.90
26743;DHT22;14341;51.256;22.478;2023-04-25T07:16:46;12.70;99.90
26743;DHT22;14341;51.256;22.478;2023-04-25T07:19:50;12.70;99.90
26743;DHT22;14341;51.256;22.478;2023-04-25T07:22:53;12.40;99.90
26743;DHT22;14341;51.256;22.478;2023-04-25T07:25:59;12.30;99.90
26743;DHT22;14341;51.256;22.478;2023-04-25T07:29:04;12.30;99.90
26743;DHT22;14341;51.256;22.478;2023-04-25T07:32:07;12.30;99.90
26743;DHT22;14341;51.256;22.478;2023-04-25T07:35:12;12.20;99.90
26743;DHT22;14341;51.256;22.478;2023-04-25T07:38:16;12.10;99.90
26743;DHT22;14341;51.256;22.478;2023-04-25T07:41:21;12.10;99.90
26743;DHT22;14341;51.256;22.478;2023-04-25T07:44:24;12.30;99.90
26743;DHT22;14341;51.256;22.478;2023-04-25T07:47:28;12.20;99.90
26743;DHT22;14341;51.256;22.478;2023-04-25T07:50:32;12.40;99.90
26743;DHT22;14341;51.256;22.478;2023-04-25T07:53:36;12.40;99.90
26743;DHT22;14341;51.256;22.478;2023-04-25T07:56:47;12.50;99.90
26743;DHT22;14341;51.256;22.478;2023-04-25T07:59:58;12.50;99.90
26743;DHT22;14341;51.256;22.478;2023-04-25T08:03:03;12.30;99.90
26743;DHT22;14341;51.256;22.478;2023-04-25T08:06:07;12.30;99.90
26743;DHT22;14341;51.256;22.478;2023-04-25T08:09:22;12.30;99.90
26743;DHT22;14341;51.256;22.478;2023-04-25T08:12:28;12.40;99.90
26743;DHT22;14341;51.256;22.478;2023-04-25T08:15:31;12.40;99.90
26743;DHT22;14341;51.256;22.478;2023-04-25T08:18:35;12.50;99.90
26743;DHT22;14341;51.256;22.478;2023-04-25T08:21:39;12.50;99.90
26743;DHT22;14341;51.256;22.478;2023-04-25T08:24:47;12.40;99.90
26743;DHT22;14341;51.256;22.478;2023-04-25T08:27:53;12.20;99.90
26743;DHT22;14341;51.256;22.478;2023-04-25T08:30:57;12.10;99.90
26743;DHT22;14341;51.256;22.478;2023-04-25T08:34:07;12.20;99.90
26743;DHT22;14341;51.256;22.478;2023-04-25T08:37:18;12.30;99.90
26743;DHT22;14341;51.256;22.478;2023-04-25T08:40:28;12.10;99.90
26743;DHT22;14341;51.256;22.478;2023-04-25T08:43:48;11.90;99.90
26743;DHT22;14341;51.256;22.478;2023-04-25T08:46:53;11.80;99.90
26743;DHT22;14341;51.256;22.478;2023-04-25T08:50:06;11.70;99.90
26743;DHT22;14341;51.256;22.478;2023-04-25T08:53:12;11.80;99.90
26743;DHT22;14341;51.256;22.478;2023-04-25T08:56:21;11.50;99.90
26743;DHT22;14341;51.256;22.478;2023-04-25T08:59:27;11.60;99.90
26743;DHT22;14341;51.256;22.478;2023-04-25T09:02:31;11.60;99.90
26743;DHT22;14341;51.256;22.478;2023-04-25T09:05:36;11.60;99.90
26743;DHT22;14341;51.256;22.478;2023-04-25T09:08:40;11.70;99.90
26743;DHT22;14341;51.256;22.478;2023-04-25T09:11:43;11.70;99.90
26743;DHT22;14341;51.256;22.478;2023-04-25T09:15:06;11.70;99.90
26743;DHT22;14341;51.256;22.478;2023-04-25T09:18:30;11.70;99.90
26743;DHT22;14341;51.256;22.478;2023-04-25T09:21:35;11.60;99.90
26743;DHT22;14341;51.256;22.478;2023-04-25T09:24:40;11.70;99.90
26743;DHT22;14341;51.256;22.478;2023-04-25T09:27:53;11.80;99.90
26743;DHT22;14341;51.256;22.478;2023-04-25T09:31:04;11.60;99.90
26743;DHT22;14341;51.256;22.478;2023-04-25T09:34:14;11.60;99.90
26743;DHT22;14341;51.256;22.478;2023-04-25T09:37:28;11.60;99.90
26743;DHT22;14341;51.256;22.478;2023-04-25T09:40:51;11.60;99.90
26743;DHT22;14341;51.256;22.478;2023-04-25T09:44:23;11.60;99.90
26743;DHT22;14341;51.256;22.478;2023-04-25T09:47:29;11.70;99.90
26743;DHT22;14341;51.256;22.478;2023-04-25T09:50:34;11.80;99.90
26743;DHT22;14341;51.256;22.478;2023-04-25T09:53:44;11.80;99.90
26743;DHT22;14341;51.256;22.478;2023-04-25T09:56:55;11.70;99.90
26743;DHT22;14341;51.256;22.478;2023-04-25T10:00:00;11.90;99.90
26743;DHT22;14341;51.256;22.478;2023-04-25T10:03:17;12.00;99.90
26743;DHT22;14341;51.256;22.478;2023-04-25T10:06:35;11.90;99.90
26743;DHT22;14341;51.256;22.478;2023-04-25T10:09:40;12.10;99.90
26743;DHT22;14341;51.256;22.478;2023-04-25T10:12:44;11.90;99.90
26743;DHT22;14341;51.256;22.478;2023-04-25T10:15:48;11.70;99.90
26743;DHT22;14341;51.256;22.478;2023-04-25T10:18:55;11.70;99.90
26743;DHT22;14341;51.256;22.478;2023-04-25T10:22:06;11.80;99.90
26743;DHT22;14341;51.256;22.478;2023-04-25T10:25:10;11.90;99.90
26743;DHT22;14341;51.256;22.478;2023-04-25T10:28:14;12.00;99.90
26743;DHT22;14341;51.256;22.478;2023-04-25T10:31:17;11.90;99.90
26743;DHT22;14341;51.256;22.478;2023-04-25T10:34:37;12.00;99.90
26743;DHT22;14341;51.256;22.478;2023-04-25T10:38:03;12.00;99.90
26743;DHT22;14341;51.256;22.478;2023-04-25T10:41:08;11.80;99.90
26743;DHT22;14341;51.256;22.478;2023-04-25T10:44:11;11.80;99.90
26743;DHT22;14341;51.256;22.478;2023-04-25T10:47:34;11.80;99.90
26743;DHT22;14341;51.256;22.478;2023-04-25T10:50:39;11.80;99.90
26743;DHT22;14341;51.256;22.478;2023-04-25T10:53:44;11.70;99.90
26743;DHT22;14341;51.256;22.478;2023-04-25T10:56:48;11.70;99.90
26743;DHT22;14341;51.256;22.478;2023-04-25T10:59:53;11.90;99.90
26743;DHT22;14341;51.256;22.478;2023-04-25T11:02:59;12.10;99.90
26743;DHT22;14341;51.256;22.478;2023-04-25T11:06:10;12.00;99.90
26743;DHT22;14341;51.256;22.478;2023-04-25T11:09:15;12.00;99.90
26743;DHT22;14341;51.256;22.478;2023-04-25T11:12:18;12.00;99.90
26743;DHT22;14341;51.256;22.478;2023-04-25T11:15:22;12.00;99.90
26743;DHT22;14341;51.256;22.478;2023-04-25T11:18:26;12.10;99.90
26743;DHT22;14341;51.256;22.478;2023-04-25T11:21:31;12.30;99.90
26743;DHT22;14341;51.256;22.478;2023-04-25T11:24:35;12.30;99.90
26743;DHT22;14341;51.256;22.478;2023-04-25T11:27:49;12.30;99.90
26743;DHT22;14341;51.256;22.478;2023-04-25T11:30:53;12.30;99.90
26743;DHT22;14341;51.256;22.478;2023-04-25T11:33:57;12.30;99.90
26743;DHT22;14341;51.256;22.478;2023-04-25T11:37:02;12.40;99.90
26743;DHT22;14341;51.256;22.478;2023-04-25T11:40:07;12.50;99.90
26743;DHT22;14341;51.256;22.478;2023-04-25T11:43:11;12.00;99.90
26743;DHT22;14341;51.256;22.478;2023-04-25T11:46:15;11.40;99.90
26743;DHT22;14341;51.256;22.478;2023-04-25T11:49:19;10.50;99.90
26743;DHT22;14341;51.256;22.478;2023-04-25T11:52:34;10.30;99.90
26743;DHT22;14341;51.256;22.478;2023-04-25T11:55:39;10.10;99.90
26743;DHT22;14341;51.256;22.478;2023-04-25T11:58:57;10.10;99.90
26743;DHT22;14341;51.256;22.478;2023-04-25T12:02:01;9.80;99.90
26743;DHT22;14341;51.256;22.478;2023-04-25T12:05:07;9.90;99.90
26743;DHT22;14341;51.256;22.478;2023-04-25T12:08:33;9.80;99.90
26743;DHT22;14341;51.256;22.478;2023-04-25T12:11:43;9.80;99.90
26743;DHT22;14341;51.256;22.478;2023-04-25T12:14:48;9.80;99.90
26743;DHT22;14341;51.256;22.478;2023-04-25T12:17:53;9.80;99.90
26743;DHT22;14341;51.256;22.478;2023-04-25T12:20:58;9.80;99.90
26743;DHT22;14341;51.256;22.478;2023-04-25T12:24:13;9.70;99.90
26743;DHT22;14341;51.256;22.478;2023-04-25T12:27:17;9.70;99.90
26743;DHT22;14341;51.256;22.478;2023-04-25T12:30:21;9.70;99.90
26743;DHT22;14341;51.256;22.478;2023-04-25T12:33:25;9.60;99.90
26743;DHT22;14341;51.256;22.478;2023-04-25T12:36:29;9.50;99.90
26743;DHT22;14341;51.256;22.478;2023-04-25T12:39:34;9.60;99.90
26743;DHT22;14341;51.256;22.478;2023-04-25T12:42:37;9.50;99.90
26743;DHT22;14341;51.256;22.478;2023-04-25T12:45:41;9.50;99.90
26743;DHT22;14341;51.256;22.478;2023-04-25T12:48:44;9.60;99.90
26743;DHT22;14341;51.256;22.478;2023-04-25T12:51:48;9.50;99.90
26743;DHT22;14341;51.256;22.478;2023-04-25T12:54:52;9.50;99.90
26743;DHT22;14341;51.256;22.478;2023-04-25T12:57:56;9.50;99.90
26743;DHT22;14341;51.256;22.478;2023-04-25T13:00:59;9.50;99.90
26743;DHT22;14341;51.256;22.478;2023-04-25T13:04:03;9.50;99.90
26743;DHT22;14341;51.256;22.478;2023-04-25T13:07:07;9.50;99.90
26743;DHT22;14341;51.256;22.478;2023-04-25T13:10:12;9.50;99.90
26743;DHT22;14341;51.256;22.478;2023-04-25T13:13:15;9.50;99.90
26743;DHT22;14341;51.256;22.478;2023-04-25T13:16:19;9.50;99.90
26743;DHT22;14341;51.256;22.478;2023-04-25T13:19:24;9.50;99.90
26743;DHT22;14341;51.256;22.478;2023-04-25T13:22:28;9.40;99.90
26743;DHT22;14341;51.256;22.478;2023-04-25T13:25:32;9.40;99.90
26743;DHT22;14341;51.256;22.478;2023-04-25T13:28:36;9.50;99.90
26743;DHT22;14341;51.256;22.478;2023-04-25T13:31:39;9.50;99.90
26743;DHT22;14341;51.256;22.478;2023-04-25T13:34:42;9.30;99.90
26743;DHT22;14341;51.256;22.478;2023-04-25T13:37:46;9.20;99.90
26743;DHT22;14341;51.256;22.478;2023-04-25T13:40:51;9.20;99.90
26743;DHT22;14341;51.256;22.478;2023-04-25T13:43:55;9.10;99.90
26743;DHT22;14341;51.256;22.478;2023-04-25T13:46:58;9.10;99.90
26743;DHT22;14341;51.256;22.478;2023-04-25T13:50:02;9.00;99.90
26743;DHT22;14341;51.256;22.478;2023-04-25T13:53:07;9.00;99.90
26743;DHT22;14341;51.256;22.478;2023-04-25T13:56:12;8.90;99.90
26743;DHT22;14341;51.256;22.478;2023-04-25T13:59:15;8.90;99.90
26743;DHT22;14341;51.256;22.478;2023-04-25T14:02:19;8.90;99.90
26743;DHT22;14341;51.256;22.478;2023-04-25T14:05:22;9.00;99.90
26743;DHT22;14341;51.256;22.478;2023-04-25T14:08:25;9.00;99.90
26743;DHT22;14341;51.256;22.478;2023-04-25T14:11:30;8.20;99.90
26743;DHT22;14341;51.256;22.478;2023-04-25T14:14:34;9.00;99.90
26743;DHT22;14341;51.256;22.478;2023-04-25T14:17:37;9.00;99.90
26743;DHT22;14341;51.256;22.478;2023-04-25T14:20:42;9.10;99.90
26743;DHT22;14341;51.256;22.478;2023-04-25T14:23:45;9.10;99.90
26743;DHT22;14341;51.256;22.478;2023-04-25T14:26:50;9.10;99.90
26743;DHT22;14341;51.256;22.478;2023-04-25T14:29:54;9.00;99.90
26743;DHT22;14341;51.256;22.478;2023-04-25T14:32:57;9.00;99.90
26743;DHT22;14341;51.256;22.478;2023-04-25T14:36:01;8.90;99.90
26743;DHT22;14341;51.256;22.478;2023-04-25T14:39:05;9.00;99.90
26743;DHT22;14341;51.256;22.478;2023-04-25T14:42:10;8.90;99.90
26743;DHT22;14341;51.256;22.478;2023-04-25T14:45:13;9.00;99.90
26743;DHT22;14341;51.256;22.478;2023-04-25T14:48:17;9.00;99.90
26743;DHT22;14341;51.256;22.478;2023-04-25T14:51:22;9.00;99.90
26743;DHT22;14341;51.256;22.478;2023-04-25T14:54:25;9.00;99.90
26743;DHT22;14341;51.256;22.478;2023-04-25T14:57:30;9.00;99.90
26743;DHT22;14341;51.256;22.478;2023-04-25T15:00:34;8.90;99.90
26743;DHT22;14341;51.256;22.478;2023-04-25T15:03:37;9.00;99.90
26743;DHT22;14341;51.256;22.478;2023-04-25T15:06:41;8.90;99.90
26743;DHT22;14341;51.256;22.478;2023-04-25T15:09:44;8.90;99.90
26743;DHT22;14341;51.256;22.478;2023-04-25T15:12:49;8.90;99.90
26743;DHT22;14341;51.256;22.478;2023-04-25T15:15:55;8.80;99.90
26743;DHT22;14341;51.256;22.478;2023-04-25T15:18:58;8.70;99.90
26743;DHT22;14341;51.256;22.478;2023-04-25T15:22:05;8.60;99.90
26743;DHT22;14341;51.256;22.478;2023-04-25T15:25:10;8.60;99.90
26743;DHT22;14341;51.256;22.478;2023-04-25T15:28:15;8.60;99.90
26743;DHT22;14341;51.256;22.478;2023-04-25T15:31:19;8.60;99.90
26743;DHT22;14341;51.256;22.478;2023-04-25T15:34:23;8.60;99.90
26743;DHT22;14341;51.256;22.478;2023-04-25T15:37:27;8.60;99.90
26743;DHT22;14341;51.256;22.478;2023-04-25T15:40:33;8.60;99.90
26743;DHT22;14341;51.256;22.478;2023-04-25T15:43:38;8.50;99.90
26743;DHT22;14341;51.256;22.478;2023-04-25T15:46:42;8.50;99.90
26743;DHT22;14341;51.256;22.478;2023-04-25T15:49:47;8.50;99.90
26743;DHT22;14341;51.256;22.478;2023-04-25T15:52:50;8.50;99.90
26743;DHT22;14341;51.256;22.478;2023-04-25T15:55:54;8.50;99.90
26743;DHT22;14341;51.256;22.478;2023-04-25T15:58:59;8.50;99.90
26743;DHT22;14341;51.256;22.478;2023-04-25T16:02:02;8.50;99.90
26743;DHT22;14341;51.256;22.478;2023-04-25T16:05:08;8.40;99.90
26743;DHT22;14341;51.256;22.478;2023-04-25T16:08:14;8.40;99.90
26743;DHT22;14341;51.256;22.478;2023-04-25T16:11:18;8.50;99.90
26743;DHT22;14341;51.256;22.478;2023-04-25T16:14:22;8.40;99.90
26743;DHT22;14341;51.256;22.478;2023-04-25T16:17:26;8.50;99.90
26743;DHT22;14341;51.256;22.478;2023-04-25T16:20:31;8.50;99.90
26743;DHT22;14341;51.256;22.478;2023-04-25T16:23:35;8.50;99.90
26743;DHT22;14341;51.256;22.478;2023-04-25T16:26:38;8.40;99.90
26743;DHT22;14341;51.256;22.478;2023-04-25T16:29:45;8.40;99.90
26743;DHT22;14341;51.256;22.478;2023-04-25T16:32:50;8.40;99.90
26743;DHT22;14341;51.256;22.478;2023-04-25T16:35:55;8.40;99.90
26743;DHT22;14341;51.256;22.478;2023-04-25T16:38:59;7.20;99.90
26743;DHT22;14341;51.256;22.478;2023-04-25T16:42:03;8.20;99.90
26743;DHT22;14341;51.256;22.478;2023-04-25T16:45:08;8.10;99.90
26743;DHT22;14341;51.256;22.478;2023-04-25T16:48:12;8.00;99.90
26743;DHT22;14341;51.256;22.478;2023-04-25T16:51:17;7.90;99.90
26743;DHT22;14341;51.256;22.478;2023-04-25T16:54:23;7.90;99.90
26743;DHT22;14341;51.256;22.478;2023-04-25T16:57:27;7.90;99.90
26743;DHT22;14341;51.256;22.478;2023-04-25T17:00:33;7.80;99.90
26743;DHT22;14341;51.256;22.478;2023-04-25T17:03:37;7.80;99.90
26743;DHT22;14341;51.256;22.478;2023-04-25T17:06:42;7.70;99.90
26743;DHT22;14341;51.256;22.478;2023-04-25T17:09:46;7.70;99.90
26743;DHT22;14341;51.256;22.478;2023-04-25T17:12:51;7.70;99.90
26743;DHT22;14341;51.256;22.478;2023-04-25T17:15:58;7.70;99.90
26743;DHT22;14341;51.256;22.478;2023-04-25T17:19:04;7.60;99.90
26743;DHT22;14341;51.256;22.478;2023-04-25T17:22:08;7.60;99.90
26743;DHT22;14341;51.256;22.478;2023-04-25T17:25:12;7.60;99.90
26743;DHT22;14341;51.256;22.478;2023-04-25T17:28:15;7.50;99.90
26743;DHT22;14341;51.256;22.478;2023-04-25T17:31:20;7.50;99.90
26743;DHT22;14341;51.256;22.478;2023-04-25T17:34:25;7.50;99.90
26743;DHT22;14341;51.256;22.478;2023-04-25T17:37:28;7.50;99.90
26743;DHT22;14341;51.256;22.478;2023-04-25T17:40:32;7.40;99.90
26743;DHT22;14341;51.256;22.478;2023-04-25T17:43:36;7.40;99.90
26743;DHT22;14341;51.256;22.478;2023-04-25T17:46:41;7.40;99.90
26743;DHT22;14341;51.256;22.478;2023-04-25T17:49:46;7.40;99.90
26743;DHT22;14341;51.256;22.478;2023-04-25T17:52:50;7.40;99.90
26743;DHT22;14341;51.256;22.478;2023-04-25T17:55:55;7.40;99.90
26743;DHT22;14341;51.256;22.478;2023-04-25T17:59:00;7.40;99.90
26743;DHT22;14341;51.256;22.478;2023-04-25T18:02:06;7.40;99.90
26743;DHT22;14341;51.256;22.478;2023-04-25T18:05:11;7.40;99.90
26743;DHT22;14341;51.256;22.478;2023-04-25T18:08:16;7.50;99.90
26743;DHT22;14341;51.256;22.478;2023-04-25T18:11:20;7.40;99.90
26743;DHT22;14341;51.256;22.478;2023-04-25T18:14:24;7.50;99.90
26743;DHT22;14341;51.256;22.478;2023-04-25T18:17:29;7.50;99.90
26743;DHT22;14341;51.256;22.478;2023-04-25T18:20:33;7.50;99.90
26743;DHT22;14341;51.256;22.478;2023-04-25T18:23:37;7.50;99.90
26743;DHT22;14341;51.256;22.478;2023-04-25T18:26:41;7.60;99.90
26743;DHT22;14341;51.256;22.478;2023-04-25T18:29:44;7.60;99.90
26743;DHT22;14341;51.256;22.478;2023-04-25T18:32:49;7.60;99.90
26743;DHT22;14341;51.256;22.478;2023-04-25T18:35:53;7.60;99.90
26743;DHT22;14341;51.256;22.478;2023-04-25T18:39:00;7.60;99.90
26743;DHT22;14341;51.256;22.478;2023-04-25T18:42:23;7.10;99.90
26743;DHT22;14341;51.256;22.478;2023-04-25T18:45:27;7.50;99.90
26743;DHT22;14341;51.256;22.478;2023-04-25T18:48:32;7.50;99.90
26743;DHT22;14341;51.256;22.478;2023-04-25T18:51:36;7.50;99.90
26743;DHT22;14341;51.256;22.478;2023-04-25T18:54:39;7.50;99.90
26743;DHT22;14341;51.256;22.478;2023-04-25T18:57:43;7.50;99.90
26743;DHT22;14341;51.256;22.478;2023-04-25T19:00:48;7.50;99.90
26743;DHT22;14341;51.256;22.478;2023-04-25T19:03:54;7.50;99.90
26743;DHT22;14341;51.256;22.478;2023-04-25T19:07:00;7.50;99.90
26743;DHT22;14341;51.256;22.478;2023-04-25T19:10:06;7.50;99.90
26743;DHT22;14341;51.256;22.478;2023-04-25T19:13:10;7.40;99.90
26743;DHT22;14341;51.256;22.478;2023-04-25T19:16:14;7.40;99.90
26743;DHT22;14341;51.256;22.478;2023-04-25T19:19:20;7.30;99.90
26743;DHT22;14341;51.256;22.478;2023-04-25T19:22:24;7.30;99.90
26743;DHT22;14341;51.256;22.478;2023-04-25T19:25:28;7.20;99.90
26743;DHT22;14341;51.256;22.478;2023-04-25T19:28:31;7.20;99.90
26743;DHT22;14341;51.256;22.478;2023-04-25T19:31:36;7.20;99.90